Terminal Aerodrome Forecast
Issued by NWS

Home | Current Version | Previous Version | Text Only | Print | Product List | Glossary On
Versions: 1 2 3 4 5 6 7 8 9 10 11 12 13 14 15 16 17 18 19 20 21
245
FTUS42 KTBW 202338
TAFLAL
TAF
KLAL 202338Z 2100/2124 08004KT P6SM FEW250
     FM210900 VRB03KT 5SM BR SCT250
     FM211400 11007KT P6SM BKN250
     FM211800 13009KT P6SM BKN250=

USA.gov is the U.S. government's official web portal to all federal, state and local government web resources and services.